Strona główna
METAR-TAF:

METAR-TAF

Lotnisko :

Rio de Janeiro, Rio de Janeiro, Brazylia

Szerokość geograficzna: 22-59S, Długość geograficzna: 043-22W, wysokość: 3 m

Aktualna obserwacja pogody

Raport powstał 33 minut temu, godzina 17:00 UTC
Wiatr 3 kt od południowo-południowy zachód
Temperatura 25°C
Wilgotność 61%
Ciśnienie 1017 hPa
Widzialność 10 km lub więcej
Mało chmury na wysokości 2000 ft
Przerywane chmury na wysokości 4000 ft

METAR: SBJR 121700Z 21003KT 9999 FEW020 BKN040 25/17 Q1017

czas: 14:33 (17:33 UTC)


TAF: brakujący

Obserwacja i prognoza pogody dla ponad 4000 lotnisk (raport METAR i TAF).

Dostępne stacje oznaczono żółtymi i czerwonymi punktami na mapie.

Najedź kursorem aby zobaczyć nazwę stacji.

Kliknij aby zobaczyć obserwacje i prognozy pogody.

Aby zmienić mapę: kliknij na zielony przycisk z czarnym krzyżykiem, aby powiększyć; na zielony przycisk z myślnikiem, aby pomniejszyć; na zielone strzałki, aby przejść do map sąsiednich.


METAR-TAF: